createdAt,value
2023-12-11T00:02:20.919Z,479.42
2023-12-11T00:04:48.564Z,520.46
2023-12-11T00:07:16.309Z,1533.03
2023-12-11T00:09:44.351Z,734.80
2023-12-11T00:12:13.407Z,865.60
2023-12-11T00:14:41.130Z,677.54
2023-12-11T00:17:08.935Z,674.66
2023-12-11T00:19:36.656Z,248.52
2023-12-11T00:22:04.623Z,127.30
2023-12-11T00:24:32.435Z,84.61
2023-12-11T00:27:00.225Z,158.26
2023-12-11T00:29:29.276Z,184.15
2023-12-11T00:31:56.987Z,318.21
2023-12-11T00:34:24.809Z,335.61
2023-12-11T00:36:52.550Z,664.56
2023-12-11T00:39:20.267Z,736.38
2023-12-11T00:41:47.951Z,898.86
2023-12-11T00:44:15.676Z,736.43
2023-12-11T00:46:44.791Z,684.75
2023-12-11T00:49:12.608Z,431.67
2023-12-11T00:51:40.387Z,207.64
2023-12-11T00:54:08.124Z,69.99
2023-12-11T00:56:35.851Z,40.65
2023-12-11T00:59:03.543Z,31.87
2023-12-11T01:01:31.302Z,21.44
2023-12-11T01:04:00.431Z,19.85
2023-12-11T01:06:28.162Z,13.89
2023-12-11T01:08:55.876Z,13.75
2023-12-11T01:11:23.523Z,14.46
2023-12-11T01:13:51.191Z,13.91
2023-12-11T01:16:19.019Z,10.53
2023-12-11T01:18:46.806Z,14.95
2023-12-11T01:21:15.969Z,20.91
2023-12-11T01:23:43.585Z,32.48
2023-12-11T01:26:11.241Z,24.05
2023-12-11T01:28:38.977Z,26.60
2023-12-11T01:31:06.774Z,18.47
2023-12-11T01:33:34.488Z,18.25
2023-12-11T01:36:02.224Z,12.72
2023-12-11T01:38:31.246Z,20.61
2023-12-11T01:40:58.893Z,18.84
2023-12-11T01:43:26.640Z,27.23
2023-12-11T01:46:02.510Z,18.63
2023-12-11T01:48:30.446Z,12.88
2023-12-11T01:50:58.392Z,25.24
2023-12-11T01:53:28.073Z,31.87
2023-12-11T01:55:57.865Z,17.65
2023-12-11T01:58:25.828Z,5.71
2023-12-11T02:00:53.584Z,21.38
2023-12-11T02:03:21.403Z,37.86
2023-12-11T02:05:49.921Z,84.81
2023-12-11T02:08:17.603Z,16.23
2023-12-11T02:10:45.500Z,90.84
2023-12-11T02:13:15.110Z,29.52
2023-12-11T02:15:45.432Z,126.80
2023-12-11T02:18:15.635Z,59.39
2023-12-11T02:20:45.064Z,12.32
2023-12-11T02:23:26.154Z,7.60
2023-12-11T02:26:02.841Z,32.33
2023-12-11T02:28:30.612Z,29.57
2023-12-11T02:30:58.308Z,27.35
2023-12-11T02:33:26.004Z,6.92
2023-12-11T02:35:53.726Z,6.58
2023-12-11T02:38:21.346Z,3.37
2023-12-11T02:40:49.039Z,10.78
2023-12-11T02:43:18.148Z,10.52
2023-12-11T02:45:45.982Z,8.78
2023-12-11T02:48:13.792Z,6.94
2023-12-11T02:50:41.469Z,7.78
2023-12-11T02:53:09.151Z,10.51
2023-12-11T02:55:36.992Z,14.90
2023-12-11T02:58:05.426Z,17.72
2023-12-11T03:00:34.679Z,16.38
2023-12-11T03:03:02.588Z,26.03
2023-12-11T03:05:30.576Z,18.90
2023-12-11T03:07:58.201Z,17.29
2023-12-11T03:10:25.881Z,27.55
2023-12-11T03:12:53.645Z,34.85
2023-12-11T03:15:21.487Z,39.61
2023-12-11T03:17:50.616Z,42.00
2023-12-11T03:20:18.429Z,32.65
2023-12-11T03:22:46.083Z,16.40
2023-12-11T03:25:13.907Z,16.83
2023-12-11T03:27:41.577Z,42.28
2023-12-11T03:30:09.936Z,42.32
2023-12-11T03:32:38.080Z,10.49
2023-12-11T03:35:07.863Z,41.61
2023-12-11T03:37:35.525Z,33.27
2023-12-11T03:40:03.529Z,16.64
2023-12-11T03:42:31.307Z,13.46
2023-12-11T03:44:58.960Z,36.45
2023-12-11T03:47:26.652Z,120.13
2023-12-11T03:49:54.397Z,56.80
2023-12-11T03:52:23.450Z,26.43
2023-12-11T03:54:51.086Z,67.44
2023-12-11T03:57:18.766Z,43.43
2023-12-11T03:59:46.501Z,35.46
2023-12-11T04:02:14.325Z,34.01
2023-12-11T04:04:42.245Z,43.20
2023-12-11T04:07:10.007Z,87.05
2023-12-11T04:09:39.090Z,185.71
2023-12-11T04:12:07.103Z,46.83
2023-12-11T04:14:34.769Z,36.04
2023-12-11T04:17:02.700Z,48.80
2023-12-11T04:19:30.427Z,59.67
2023-12-11T04:21:58.176Z,34.95
2023-12-11T04:24:25.839Z,18.90
2023-12-11T04:26:54.928Z,16.80
2023-12-11T04:29:22.621Z,4.49
2023-12-11T04:31:50.233Z,5.84
2023-12-11T04:34:17.976Z,4.85
2023-12-11T04:36:45.790Z,7.18
2023-12-11T04:39:13.580Z,10.12
2023-12-11T04:41:41.278Z,6.80
2023-12-11T04:44:10.286Z,11.14
2023-12-11T04:46:37.910Z,14.01
2023-12-11T04:49:05.652Z,17.77
2023-12-11T04:51:33.360Z,24.90
2023-12-11T04:54:01.009Z,18.93
2023-12-11T04:56:28.630Z,25.74
2023-12-11T04:58:56.262Z,27.69
2023-12-11T05:01:25.342Z,74.36
2023-12-11T05:03:53.210Z,17.02
2023-12-11T05:06:20.933Z,23.28
2023-12-11T05:08:48.614Z,27.06
2023-12-11T05:11:16.321Z,35.00
2023-12-11T05:13:44.099Z,38.23
2023-12-11T05:16:12.324Z,35.16
2023-12-11T05:18:41.552Z,30.17
2023-12-11T05:21:10.408Z,22.34
2023-12-11T05:23:38.510Z,30.47
2023-12-11T05:26:06.462Z,11.29
2023-12-11T05:28:34.240Z,10.95
2023-12-11T05:31:01.950Z,8.89
2023-12-11T05:33:29.784Z,14.77
2023-12-11T05:35:58.928Z,17.06
2023-12-11T05:38:26.576Z,13.55
2023-12-11T05:40:54.274Z,12.86
2023-12-11T05:43:22.002Z,10.31
2023-12-11T05:45:49.742Z,40.31
2023-12-11T05:48:17.606Z,13.00
2023-12-11T05:50:45.476Z,17.47
2023-12-11T05:53:14.475Z,10.85
2023-12-11T05:55:42.320Z,9.34
2023-12-11T05:58:10.041Z,14.53
2023-12-11T06:00:37.851Z,20.06
2023-12-11T06:03:05.632Z,11.35
2023-12-11T06:05:33.480Z,8.94
2023-12-11T06:08:01.254Z,6.25
2023-12-11T06:10:30.319Z,4.74
2023-12-11T06:12:57.956Z,6.23
2023-12-11T06:15:25.602Z,7.66
2023-12-11T06:17:53.326Z,10.93
2023-12-11T06:20:21.013Z,7.38
2023-12-11T06:22:48.665Z,10.38
2023-12-11T06:25:16.448Z,13.58
2023-12-11T06:27:45.599Z,7.11
2023-12-11T06:30:13.846Z,730.70
2023-12-11T06:32:41.543Z,840.47
2023-12-11T06:35:09.752Z,14.70
2023-12-11T06:37:37.540Z,21.61
2023-12-11T06:40:06.553Z,26.83
2023-12-11T06:42:35.246Z,32.81
2023-12-11T06:45:05.028Z,36.00
2023-12-11T06:47:32.938Z,19.72
2023-12-11T06:50:00.990Z,6.17
2023-12-11T06:52:29.116Z,46.80
2023-12-11T06:54:56.906Z,637.87
2023-12-11T06:57:24.762Z,39.05
2023-12-11T06:59:53.012Z,36.16
2023-12-11T07:02:22.157Z,75.90
2023-12-11T07:04:50.004Z,45.60
2023-12-11T07:07:17.799Z,29.67
2023-12-11T07:09:45.510Z,92.36
2023-12-11T07:12:13.220Z,41.75
2023-12-11T07:14:40.890Z,10.60
2023-12-11T07:17:08.510Z,25.33
2023-12-11T07:19:37.731Z,20.69
2023-12-11T07:22:05.546Z,11.90
2023-12-11T07:24:33.257Z,11.23
2023-12-11T07:27:00.911Z,13.28
2023-12-11T07:29:28.550Z,9.40
2023-12-11T07:31:56.232Z,9.08
2023-12-11T07:34:24.039Z,53.92
2023-12-11T07:36:53.241Z,20.05
2023-12-11T07:39:20.922Z,22.93
2023-12-11T07:41:48.577Z,11.44
2023-12-11T07:44:16.222Z,28.44
2023-12-11T07:46:43.865Z,1404.53
2023-12-11T07:49:11.756Z,57.97
2023-12-11T07:51:39.556Z,27.56
2023-12-11T07:54:08.730Z,23.06
2023-12-11T07:56:36.780Z,23.02
2023-12-11T07:59:04.533Z,27.73
2023-12-11T08:01:32.455Z,19.89
2023-12-11T08:04:00.289Z,23.57
2023-12-11T08:06:28.353Z,20.41
2023-12-11T08:08:55.981Z,12.58
2023-12-11T08:11:25.294Z,47.96
2023-12-11T08:13:52.986Z,30.30
2023-12-11T08:16:21.197Z,20.77
2023-12-11T08:18:48.967Z,37.50
2023-12-11T08:21:16.832Z,34.80
2023-12-11T08:23:45.435Z,67.30
2023-12-11T08:26:17.189Z,115.63
2023-12-11T08:28:46.788Z,159.00
2023-12-11T08:31:14.731Z,234.75
2023-12-11T08:33:42.824Z,316.98
2023-12-11T08:36:11.000Z,241.71
2023-12-11T08:38:38.691Z,456.96
2023-12-11T08:41:06.577Z,760.57
2023-12-11T08:43:34.302Z,810.19
2023-12-11T08:46:03.770Z,565.94
2023-12-11T08:48:31.874Z,375.72
2023-12-11T08:50:59.610Z,228.88
2023-12-11T08:53:27.322Z,216.62
2023-12-11T08:55:55.283Z,293.77
2023-12-11T08:58:23.055Z,224.91
2023-12-11T09:00:50.954Z,169.73
2023-12-11T09:03:20.110Z,71.40
2023-12-11T09:05:47.882Z,49.37
2023-12-11T09:08:15.563Z,62.51
2023-12-11T09:10:43.232Z,70.02
2023-12-11T09:13:11.044Z,172.40
2023-12-11T09:15:38.820Z,133.98
2023-12-11T09:18:06.756Z,322.82
2023-12-11T09:20:35.980Z,320.42
2023-12-11T09:23:03.843Z,427.83
2023-12-11T09:25:31.780Z,426.59
2023-12-11T09:27:59.532Z,805.58
2023-12-11T09:30:27.273Z,668.18
2023-12-11T09:32:55.231Z,844.64
2023-12-11T09:35:23.297Z,701.14
2023-12-11T09:37:53.800Z,1152.35
2023-12-11T09:40:21.854Z,427.64
2023-12-11T09:42:52.450Z,1240.30
2023-12-11T09:45:20.960Z,1576.07
2023-12-11T09:48:04.465Z,1256.07
2023-12-11T09:50:39.156Z,1127.36
2023-12-11T09:53:09.708Z,1809.59
2023-12-11T09:55:37.516Z,1576.79
2023-12-11T09:58:06.871Z,1496.00
2023-12-11T10:00:36.702Z,1864.83
2023-12-11T10:03:06.277Z,1763.64
2023-12-11T10:05:34.055Z,1130.51
2023-12-11T10:08:02.544Z,2106.06
2023-12-11T10:10:32.325Z,1333.37
2023-12-11T10:13:01.337Z,1748.96
2023-12-11T10:15:30.967Z,1757.48
2023-12-11T10:18:03.650Z,2248.29
2023-12-11T10:20:31.998Z,1702.67
2023-12-11T10:23:12.640Z,1812.16
2023-12-11T10:25:45.110Z,2094.62
2023-12-11T10:28:14.902Z,1953.37
2023-12-11T10:30:51.617Z,1968.39
2023-12-11T10:33:20.386Z,2876.00
2023-12-11T10:35:49.436Z,3297.83
2023-12-11T10:38:24.801Z,2449.78
2023-12-11T10:40:54.524Z,2108.53
2023-12-11T10:43:22.454Z,2117.79
2023-12-11T10:45:52.092Z,1952.69
2023-12-11T10:48:21.479Z,1905.79
2023-12-11T10:50:50.137Z,2112.47
2023-12-11T10:53:17.843Z,1885.25
2023-12-11T10:55:49.909Z,2921.56
2023-12-11T10:58:20.097Z,5508.00
2023-12-11T11:00:48.311Z,6329.47
2023-12-11T11:03:22.351Z,7441.10
2023-12-11T11:05:53.737Z,3575.23
2023-12-11T11:08:32.496Z,2389.69
2023-12-11T11:11:11.432Z,2964.81
2023-12-11T11:14:03.378Z,8381.30
2023-12-11T11:16:52.340Z,5016.33
2023-12-11T11:19:20.829Z,5744.35
2023-12-11T11:22:27.219Z,7854.48
2023-12-11T11:25:30.658Z,8903.59
2023-12-11T11:27:59.135Z,8595.50
2023-12-11T11:30:50.510Z,8642.96
2023-12-11T11:33:19.567Z,8091.94
2023-12-11T11:35:52.247Z,7664.26
2023-12-11T11:38:22.068Z,8456.08
2023-12-11T11:40:50.091Z,7830.58
2023-12-11T11:43:18.688Z,7442.58
2023-12-11T11:45:46.595Z,7725.68
2023-12-11T11:48:15.773Z,6855.31
2023-12-11T11:50:54.880Z,5371.43
2023-12-11T11:53:23.614Z,2723.61
2023-12-11T11:55:51.549Z,2837.36
2023-12-11T11:58:19.542Z,2985.78
2023-12-11T12:00:47.369Z,4406.60
2023-12-11T12:03:16.541Z,6649.34
2023-12-11T12:05:54.290Z,3052.56
2023-12-11T12:08:22.193Z,2582.16
2023-12-11T12:10:49.932Z,2821.49
2023-12-11T12:13:17.920Z,3124.73
2023-12-11T12:15:45.728Z,2889.18
2023-12-11T12:18:14.027Z,5619.87
2023-12-11T12:20:43.281Z,5654.36
2023-12-11T12:23:11.251Z,4282.36
2023-12-11T12:25:38.947Z,2793.72
2023-12-11T12:28:09.535Z,3848.23
2023-12-11T12:30:37.402Z,2934.62
2023-12-11T12:33:09.916Z,3311.43
2023-12-11T12:35:39.376Z,2859.68
2023-12-11T12:38:09.143Z,3540.74
2023-12-11T12:40:36.969Z,3923.10
2023-12-11T12:43:09.951Z,3090.77
2023-12-11T12:45:38.152Z,4488.02
2023-12-11T12:48:06.786Z,3556.35
2023-12-11T12:50:35.272Z,3985.21
2023-12-11T12:53:08.890Z,5131.19
2023-12-11T12:55:36.917Z,4148.04
2023-12-11T12:58:04.952Z,4078.99
2023-12-11T13:00:33.021Z,3300.05
2023-12-11T13:03:02.252Z,2278.29
2023-12-11T13:05:40.574Z,2319.50
2023-12-11T13:08:09.767Z,3871.81
2023-12-11T13:10:37.880Z,3697.89
2023-12-11T13:13:09.670Z,3373.36
2023-12-11T13:15:38.259Z,1585.01
2023-12-11T13:18:06.244Z,2620.61
2023-12-11T13:20:34.633Z,2464.56
2023-12-11T13:23:02.647Z,2524.96
2023-12-11T13:25:31.759Z,2305.82
2023-12-11T13:27:59.494Z,2296.19
2023-12-11T13:30:27.452Z,3511.98
2023-12-11T13:32:55.166Z,3258.36
2023-12-11T13:35:22.984Z,2180.54
2023-12-11T13:37:50.755Z,1852.91
2023-12-11T13:40:18.481Z,2523.09
2023-12-11T13:42:47.547Z,2369.65
2023-12-11T13:45:15.275Z,1151.53
2023-12-11T13:47:43.037Z,2231.67
2023-12-11T13:50:10.907Z,2398.80
2023-12-11T13:52:38.800Z,2632.65
2023-12-11T13:55:06.899Z,3211.54
2023-12-11T13:57:35.737Z,1603.54
2023-12-11T14:00:05.858Z,2879.23
2023-12-11T14:02:59.408Z,2146.74
2023-12-11T14:05:21.394Z,1448.32
2023-12-11T14:07:49.166Z,1552.93
2023-12-11T14:10:16.965Z,1653.38
2023-12-11T14:12:45.038Z,2405.13
2023-12-11T14:15:14.122Z,2211.36
2023-12-11T14:17:41.867Z,2706.27
2023-12-11T14:20:11.123Z,3351.54
2023-12-11T14:22:39.187Z,3590.59
2023-12-11T14:25:07.986Z,3729.07
2023-12-11T14:27:35.984Z,3514.41
2023-12-11T14:30:04.430Z,1876.95
2023-12-11T14:32:33.575Z,2775.67
2023-12-11T14:35:01.373Z,1405.52
2023-12-11T14:37:29.527Z,2512.84
2023-12-11T14:39:57.445Z,2148.26
2023-12-11T14:42:25.144Z,2972.73
2023-12-11T14:44:52.837Z,2948.88
2023-12-11T14:47:20.616Z,3478.06
2023-12-11T14:49:49.820Z,2895.80
2023-12-11T14:52:17.866Z,3781.56
2023-12-11T14:54:45.588Z,4445.79
2023-12-11T14:57:13.404Z,5345.80
2023-12-11T14:59:41.187Z,5808.16
2023-12-11T15:02:08.965Z,4213.57
2023-12-11T15:04:36.717Z,3911.70
2023-12-11T15:07:06.017Z,4459.72
2023-12-11T15:09:34.183Z,4411.49
2023-12-11T15:12:01.963Z,5029.01
2023-12-11T15:14:30.032Z,3544.49
2023-12-11T15:16:58.117Z,2703.73
2023-12-11T15:19:25.874Z,2736.46
2023-12-11T15:21:53.702Z,2707.44
2023-12-11T15:24:22.805Z,3350.26
2023-12-11T15:26:50.553Z,3591.83
2023-12-11T15:29:18.243Z,3506.59
2023-12-11T15:31:45.939Z,3206.99
2023-12-11T15:34:13.778Z,1892.90
2023-12-11T15:36:41.557Z,3843.91
2023-12-11T15:39:10.116Z,2837.90
2023-12-11T15:41:39.139Z,2872.44
2023-12-11T15:44:06.863Z,2198.58
2023-12-11T15:46:34.659Z,3576.03
2023-12-11T15:49:02.524Z,3531.79
2023-12-11T15:51:30.327Z,3943.58
2023-12-11T15:53:58.037Z,4310.18
2023-12-11T15:56:25.766Z,4810.99
2023-12-11T15:58:55.032Z,5575.36
2023-12-11T16:01:22.815Z,6737.66
2023-12-11T16:03:50.665Z,5806.15
2023-12-11T16:06:18.460Z,5855.34
2023-12-11T16:08:46.412Z,5100.90
2023-12-11T16:11:14.668Z,5415.85
2023-12-11T16:13:42.937Z,4613.16
2023-12-11T16:16:13.300Z,5856.40
2023-12-11T16:18:42.181Z,5622.88
2023-12-11T16:21:10.216Z,5302.85
2023-12-11T16:23:37.972Z,4953.05
2023-12-11T16:26:12.130Z,4747.23
2023-12-11T16:28:39.937Z,4974.70
2023-12-11T16:31:07.915Z,5249.17
2023-12-11T16:33:37.151Z,4256.50
2023-12-11T16:36:11.903Z,5639.34
2023-12-11T16:38:39.652Z,5677.81
2023-12-11T16:41:07.472Z,5756.04
2023-12-11T16:43:36.979Z,7403.86
2023-12-11T16:46:05.604Z,8145.20
2023-12-11T16:48:38.136Z,7180.96
2023-12-11T16:51:06.188Z,6719.73
2023-12-11T16:53:33.900Z,5539.01
2023-12-11T16:56:01.647Z,3305.36
2023-12-11T16:58:29.391Z,3717.99
2023-12-11T17:00:57.099Z,1787.12
2023-12-11T17:03:24.876Z,1731.78
2023-12-11T17:05:53.950Z,1358.46
2023-12-11T17:08:21.675Z,2528.03
2023-12-11T17:10:49.562Z,2452.84
2023-12-11T17:13:17.298Z,1798.61
2023-12-11T17:15:45.056Z,2433.26
2023-12-11T17:18:12.814Z,2323.92
2023-12-11T17:20:40.549Z,2751.36
2023-12-11T17:23:09.587Z,2469.65
2023-12-11T17:25:37.304Z,4103.73
2023-12-11T17:28:05.972Z,2822.49
2023-12-11T17:30:33.822Z,3817.32
2023-12-11T17:33:01.561Z,4241.30
2023-12-11T17:35:29.298Z,2101.55
2023-12-11T17:37:57.019Z,3408.85
2023-12-11T17:40:26.120Z,3468.61
2023-12-11T17:42:53.905Z,2189.06
2023-12-11T17:45:24.914Z,3538.26
2023-12-11T17:47:54.030Z,2796.82
2023-12-11T17:50:21.794Z,2726.18
2023-12-11T17:52:49.544Z,2768.95
2023-12-11T17:55:17.343Z,2717.81
2023-12-11T17:57:46.551Z,2751.58
2023-12-11T18:00:15.350Z,2637.34
2023-12-11T18:02:43.038Z,2778.96
2023-12-11T18:05:10.979Z,1868.11
2023-12-11T18:07:38.845Z,2645.23
2023-12-11T18:10:06.916Z,2963.17
2023-12-11T18:12:34.663Z,2199.84
2023-12-11T18:15:04.427Z,2680.77
2023-12-11T18:17:32.236Z,2225.44
2023-12-11T18:20:00.261Z,2497.95
2023-12-11T18:22:28.175Z,3066.83
2023-12-11T18:24:55.993Z,3234.30
2023-12-11T18:27:23.728Z,3298.28
2023-12-11T18:29:51.628Z,3110.06
2023-12-11T18:32:20.690Z,2875.71
2023-12-11T18:34:54.525Z,3793.05
2023-12-11T18:37:22.939Z,2900.93
2023-12-11T18:39:50.680Z,2854.72
2023-12-11T18:42:18.553Z,3133.57
2023-12-11T18:44:46.305Z,1763.22
2023-12-11T18:47:14.125Z,1329.31
2023-12-11T18:49:43.846Z,2203.53
2023-12-11T18:52:11.822Z,2265.33
2023-12-11T18:54:40.085Z,1418.51
2023-12-11T18:57:08.158Z,1812.55
2023-12-11T18:59:36.067Z,1683.70
2023-12-11T19:02:04.302Z,1729.96
2023-12-11T19:04:32.206Z,2345.24
2023-12-11T19:07:01.516Z,2569.40
2023-12-11T19:09:29.248Z,2690.15
2023-12-11T19:11:57.258Z,2150.51
2023-12-11T19:14:25.033Z,2530.99
2023-12-11T19:16:52.807Z,1707.20
2023-12-11T19:19:20.652Z,2639.47
2023-12-11T19:21:48.434Z,2359.72
2023-12-11T19:24:17.502Z,3049.75
2023-12-11T19:26:45.288Z,3241.94
2023-12-11T19:29:13.090Z,3350.54
2023-12-11T19:31:42.088Z,3543.31
2023-12-11T19:34:10.795Z,3739.69
2023-12-11T19:36:40.662Z,2928.13
2023-12-11T19:39:08.575Z,4121.41
2023-12-11T19:41:37.671Z,3024.34
2023-12-11T19:44:05.346Z,3466.64
2023-12-11T19:46:33.086Z,4354.73
2023-12-11T19:49:00.934Z,3566.20
2023-12-11T19:51:28.686Z,2959.27
2023-12-11T19:53:56.864Z,4014.64
2023-12-11T19:56:24.581Z,3900.05
2023-12-11T19:58:53.724Z,2842.38
2023-12-11T20:01:28.166Z,2841.19
2023-12-11T20:03:56.351Z,3531.60
2023-12-11T20:06:24.756Z,3070.44
2023-12-11T20:08:52.513Z,1375.30
2023-12-11T20:11:21.136Z,1517.68
2023-12-11T20:13:50.730Z,2079.10
2023-12-11T20:16:19.920Z,2372.29
2023-12-11T20:18:47.799Z,1836.87
2023-12-11T20:21:15.536Z,1730.83
2023-12-11T20:23:43.289Z,3553.42
2023-12-11T20:26:11.030Z,3385.21
2023-12-11T20:28:38.734Z,3075.90
2023-12-11T20:31:07.909Z,2796.93
2023-12-11T20:33:38.137Z,2598.39
2023-12-11T20:36:13.829Z,3080.71
2023-12-11T20:38:41.655Z,2416.39
2023-12-11T20:41:17.631Z,2561.83
2023-12-11T20:43:45.377Z,2708.49
2023-12-11T20:46:13.120Z,2865.44
2023-12-11T20:48:42.228Z,3934.33
2023-12-11T20:51:09.984Z,3309.27
2023-12-11T20:53:37.658Z,5004.01
2023-12-11T20:56:05.914Z,2654.60
2023-12-11T20:58:34.717Z,1433.93
2023-12-11T21:01:02.519Z,1511.94
2023-12-11T21:03:30.328Z,1607.51
2023-12-11T21:05:59.479Z,1687.43
2023-12-11T21:08:27.284Z,1976.49
2023-12-11T21:10:54.971Z,1976.47
2023-12-11T21:13:22.737Z,1659.79
2023-12-11T21:15:53.024Z,2208.30
2023-12-11T21:18:21.822Z,1988.19
2023-12-11T21:20:49.541Z,2687.57
2023-12-11T21:23:18.590Z,2465.36
2023-12-11T21:25:46.438Z,3285.45
2023-12-11T21:28:14.314Z,2762.56
2023-12-11T21:30:42.266Z,3440.72
2023-12-11T21:33:10.071Z,3633.12
2023-12-11T21:35:37.803Z,2957.56
2023-12-11T21:38:05.519Z,2534.25
2023-12-11T21:40:34.596Z,2246.60
2023-12-11T21:43:02.365Z,2392.99
2023-12-11T21:45:30.106Z,2127.95
2023-12-11T21:47:57.869Z,2180.15
2023-12-11T21:50:25.617Z,1738.76
2023-12-11T21:52:53.284Z,2812.14
2023-12-11T21:55:20.996Z,2380.08
2023-12-11T21:57:50.106Z,2350.48
2023-12-11T22:00:18.263Z,1680.47
2023-12-11T22:02:45.972Z,2159.92
2023-12-11T22:05:13.726Z,2332.77
2023-12-11T22:07:41.766Z,1778.08
2023-12-11T22:10:09.565Z,2326.40
2023-12-11T22:12:37.289Z,2424.06
2023-12-11T22:15:07.286Z,2058.81
2023-12-11T22:17:35.380Z,3229.13
2023-12-11T22:20:03.673Z,3040.05
2023-12-11T22:22:31.500Z,2479.80
2023-12-11T22:24:59.246Z,3697.40
2023-12-11T22:27:26.979Z,4776.24
2023-12-11T22:29:54.690Z,4659.78
2023-12-11T22:32:23.726Z,5100.81
2023-12-11T22:34:51.560Z,5124.41
2023-12-11T22:37:19.471Z,4087.88
2023-12-11T22:39:47.217Z,2054.21
2023-12-11T22:42:14.975Z,3088.70
2023-12-11T22:44:43.357Z,3256.10
2023-12-11T22:47:12.241Z,3074.19
2023-12-11T22:49:41.288Z,2447.13
2023-12-11T22:52:09.082Z,3264.58
2023-12-11T22:54:36.826Z,2990.26
2023-12-11T22:57:04.956Z,3703.82
2023-12-11T22:59:32.706Z,3527.83
2023-12-11T23:02:03.423Z,3957.92
2023-12-11T23:04:32.067Z,2609.61
2023-12-11T23:07:01.161Z,4611.46
2023-12-11T23:09:28.862Z,2757.39
2023-12-11T23:11:56.545Z,4992.53
2023-12-11T23:14:24.284Z,4976.68
2023-12-11T23:16:51.998Z,5564.04
2023-12-11T23:19:19.816Z,4669.91
2023-12-11T23:21:50.027Z,4905.93
2023-12-11T23:24:19.201Z,4161.93
2023-12-11T23:26:46.901Z,3248.25
2023-12-11T23:29:14.584Z,2676.65
2023-12-11T23:31:42.294Z,3394.99
2023-12-11T23:34:10.033Z,3481.27
2023-12-11T23:36:37.773Z,1981.73
2023-12-11T23:39:05.472Z,2441.43
2023-12-11T23:41:37.503Z,3053.51
2023-12-11T23:44:05.203Z,1611.63
2023-12-11T23:46:32.973Z,2573.35
2023-12-11T23:49:00.835Z,2655.66
2023-12-11T23:51:28.544Z,1376.62
2023-12-11T23:53:56.190Z,1431.17
2023-12-11T23:56:23.881Z,1834.67
2023-12-11T23:58:52.907Z,1188.92
